sensor_id;sensor_type;location;lat;lon;timestamp;pressure;altitude;pressure_sealevel;temperature;humidity
43115;BME280;28727;50.068;14.452;2023-02-10T00:00:23;101027.81;;;-0.91;57.24
43115;BME280;28727;50.068;14.452;2023-02-10T00:02:55;101021.09;;;-0.97;56.87
43115;BME280;28727;50.068;14.452;2023-02-10T00:05:26;101016.88;;;-0.99;56.83
43115;BME280;28727;50.068;14.452;2023-02-10T00:07:58;101022.13;;;-1.01;57.06
43115;BME280;28727;50.068;14.452;2023-02-10T00:10:30;101021.19;;;-1.00;57.38
43115;BME280;28727;50.068;14.452;2023-02-10T00:13:02;101022.06;;;-0.99;57.44
43115;BME280;28727;50.068;14.452;2023-02-10T00:15:33;101017.84;;;-1.02;57.74
43115;BME280;28727;50.068;14.452;2023-02-10T00:18:05;101016.13;;;-1.03;57.50
43115;BME280;28727;50.068;14.452;2023-02-10T00:20:37;101021.31;;;-1.03;58.03
43115;BME280;28727;50.068;14.452;2023-02-10T00:23:09;101023.91;;;-1.03;57.64
43115;BME280;28727;50.068;14.452;2023-02-10T00:25:41;101017.94;;;-1.05;58.23
43115;BME280;28727;50.068;14.452;2023-02-10T00:28:12;101026.59;;;-1.06;57.89
43115;BME280;28727;50.068;14.452;2023-02-10T00:30:44;101025.91;;;-1.11;57.81
43115;BME280;28727;50.068;14.452;2023-02-10T00:33:18;101024.22;;;-1.12;57.86
43115;BME280;28727;50.068;14.452;2023-02-10T00:35:50;101018.28;;;-1.14;57.54
43115;BME280;28727;50.068;14.452;2023-02-10T00:38:22;101027.75;;;-1.13;57.65
43115;BME280;28727;50.068;14.452;2023-02-10T00:40:53;101027.78;;;-1.14;57.92
43115;BME280;28727;50.068;14.452;2023-02-10T00:43:25;101034.72;;;-1.15;57.30
43115;BME280;28727;50.068;14.452;2023-02-10T00:45:57;101034.84;;;-1.18;57.48
43115;BME280;28727;50.068;14.452;2023-02-10T00:48:28;101027.06;;;-1.18;57.61
43115;BME280;28727;50.068;14.452;2023-02-10T00:51:01;101033.91;;;-1.17;57.49
43115;BME280;28727;50.068;14.452;2023-02-10T00:53:36;101030.47;;;-1.17;57.08
43115;BME280;28727;50.068;14.452;2023-02-10T00:56:09;101026.25;;;-1.20;57.49
43115;BME280;28727;50.068;14.452;2023-02-10T00:58:41;101028.91;;;-1.21;57.13
43115;BME280;28727;50.068;14.452;2023-02-10T01:01:14;101017.72;;;-1.24;57.09
43115;BME280;28727;50.068;14.452;2023-02-10T01:03:45;101022.97;;;-1.25;57.47
43115;BME280;28727;50.068;14.452;2023-02-10T01:06:17;101017.84;;;-1.27;57.44
43115;BME280;28727;50.068;14.452;2023-02-10T01:08:49;101011.00;;;-1.29;57.61
43115;BME280;28727;50.068;14.452;2023-02-10T01:11:24;101011.94;;;-1.30;57.00
43115;BME280;28727;50.068;14.452;2023-02-10T01:13:55;101015.50;;;-1.34;57.32
43115;BME280;28727;50.068;14.452;2023-02-10T01:16:27;101006.41;;;-1.46;57.68
43115;BME280;28727;50.068;14.452;2023-02-10T01:18:59;100996.03;;;-1.46;57.75
43115;BME280;28727;50.068;14.452;2023-02-10T01:21:34;100991.06;;;-1.52;58.17
43115;BME280;28727;50.068;14.452;2023-02-10T01:24:09;100990.28;;;-1.54;58.10
43115;BME280;28727;50.068;14.452;2023-02-10T01:26:41;100984.34;;;-1.57;58.07
43115;BME280;28727;50.068;14.452;2023-02-10T01:29:13;100989.66;;;-1.60;58.26
43115;BME280;28727;50.068;14.452;2023-02-10T01:31:44;100995.63;;;-1.58;58.08
43115;BME280;28727;50.068;14.452;2023-02-10T01:34:16;101002.59;;;-1.60;58.74
43115;BME280;28727;50.068;14.452;2023-02-10T01:36:48;101005.94;;;-1.57;58.31
43115;BME280;28727;50.068;14.452;2023-02-10T01:39:21;101001.06;;;-1.66;58.44
43115;BME280;28727;50.068;14.452;2023-02-10T01:41:53;101004.84;;;-1.76;58.76
43115;BME280;28727;50.068;14.452;2023-02-10T01:46:58;101004.53;;;-1.93;59.75
43115;BME280;28727;50.068;14.452;2023-02-10T01:49:38;100999.56;;;-1.99;59.28
43115;BME280;28727;50.068;14.452;2023-02-10T01:52:17;101004.19;;;-2.09;59.79
43115;BME280;28727;50.068;14.452;2023-02-10T01:55:17;101011.34;;;-2.17;60.00
43115;BME280;28727;50.068;14.452;2023-02-10T01:57:48;101015.78;;;-2.21;60.18
43115;BME280;28727;50.068;14.452;2023-02-10T02:00:25;101020.84;;;-2.18;59.76
43115;BME280;28727;50.068;14.452;2023-02-10T02:02:57;101020.94;;;-2.21;60.57
43115;BME280;28727;50.068;14.452;2023-02-10T02:05:36;101020.06;;;-2.20;60.57
43115;BME280;28727;50.068;14.452;2023-02-10T02:08:12;101026.09;;;-2.19;60.79
43115;BME280;28727;50.068;14.452;2023-02-10T02:16:40;101024.34;;;-2.19;61.49
43115;BME280;28727;50.068;14.452;2023-02-10T02:19:47;101025.13;;;-2.17;61.30
43115;BME280;28727;50.068;14.452;2023-02-10T02:23:01;101026.94;;;-2.19;60.53
43115;BME280;28727;50.068;14.452;2023-02-10T02:37:29;101045.44;;;-2.31;61.98
43115;BME280;28727;50.068;14.452;2023-02-10T02:40:03;101047.16;;;-2.31;61.37
43115;BME280;28727;50.068;14.452;2023-02-10T02:42:34;101039.41;;;-2.31;61.35
43115;BME280;28727;50.068;14.452;2023-02-10T02:45:32;101037.66;;;-2.31;61.56
43115;BME280;28727;50.068;14.452;2023-02-10T02:54:38;101044.84;;;-2.40;61.68
43115;BME280;28727;50.068;14.452;2023-02-10T03:00:11;101055.19;;;-2.40;61.59
43115;BME280;28727;50.068;14.452;2023-02-10T03:02:44;101054.44;;;-2.44;61.48
43115;BME280;28727;50.068;14.452;2023-02-10T03:05:19;101048.50;;;-2.47;62.21
43115;BME280;28727;50.068;14.452;2023-02-10T03:07:52;101041.66;;;-2.49;62.10
43115;BME280;28727;50.068;14.452;2023-02-10T03:10:24;101038.25;;;-2.51;62.49
43115;BME280;28727;50.068;14.452;2023-02-10T03:12:55;101041.75;;;-2.53;62.80
43115;BME280;28727;50.068;14.452;2023-02-10T03:15:27;101041.75;;;-2.53;62.45
43115;BME280;28727;50.068;14.452;2023-02-10T03:18:04;101046.94;;;-2.53;62.81
43115;BME280;28727;50.068;14.452;2023-02-10T03:20:36;101041.75;;;-2.53;62.73
43115;BME280;28727;50.068;14.452;2023-02-10T03:23:08;101045.19;;;-2.53;62.57
43115;BME280;28727;50.068;14.452;2023-02-10T03:25:40;101039.25;;;-2.55;62.43
43115;BME280;28727;50.068;14.452;2023-02-10T03:28:12;101046.19;;;-2.57;62.63
43115;BME280;28727;50.068;14.452;2023-02-10T03:30:46;101047.03;;;-2.56;62.48
43115;BME280;28727;50.068;14.452;2023-02-10T03:33:22;101051.47;;;-2.60;63.51
43115;BME280;28727;50.068;14.452;2023-02-10T03:35:54;101047.94;;;-2.59;63.53
43115;BME280;28727;50.068;14.452;2023-02-10T03:38:26;101064.28;;;-2.57;63.06
43115;BME280;28727;50.068;14.452;2023-02-10T03:40:58;101068.53;;;-2.54;63.14
43115;BME280;28727;50.068;14.452;2023-02-10T03:43:32;101069.44;;;-2.55;63.29
43115;BME280;28727;50.068;14.452;2023-02-10T03:46:04;101071.97;;;-2.54;63.58
43115;BME280;28727;50.068;14.452;2023-02-10T03:48:36;101077.19;;;-2.55;62.92
43115;BME280;28727;50.068;14.452;2023-02-10T03:51:11;101078.91;;;-2.56;63.21
43115;BME280;28727;50.068;14.452;2023-02-10T03:53:43;101088.38;;;-2.55;63.63
43115;BME280;28727;50.068;14.452;2023-02-10T03:56:15;101079.66;;;-2.52;63.72
43115;BME280;28727;50.068;14.452;2023-02-10T03:58:46;101085.53;;;-2.45;63.42
43115;BME280;28727;50.068;14.452;2023-02-10T04:01:19;101086.22;;;-2.40;63.49
43115;BME280;28727;50.068;14.452;2023-02-10T04:03:50;101084.63;;;-2.44;63.68
43115;BME280;28727;50.068;14.452;2023-02-10T04:06:22;101084.59;;;-2.43;63.11
43115;BME280;28727;50.068;14.452;2023-02-10T04:08:54;101082.03;;;-2.44;63.21
43115;BME280;28727;50.068;14.452;2023-02-10T04:11:25;101082.91;;;-2.44;63.54
43115;BME280;28727;50.068;14.452;2023-02-10T04:14:00;101085.44;;;-2.42;63.17
43115;BME280;28727;50.068;14.452;2023-02-10T04:16:32;101094.88;;;-2.41;62.99
43115;BME280;28727;50.068;14.452;2023-02-10T04:19:05;101095.69;;;-2.39;63.37
43115;BME280;28727;50.068;14.452;2023-02-10T04:21:36;101095.72;;;-2.41;62.87
43115;BME280;28727;50.068;14.452;2023-02-10T04:24:08;101100.16;;;-2.44;63.22
43115;BME280;28727;50.068;14.452;2023-02-10T04:26:40;101093.31;;;-2.47;63.05
43115;BME280;28727;50.068;14.452;2023-02-10T04:29:15;101085.56;;;-2.47;63.49
43115;BME280;28727;50.068;14.452;2023-02-10T04:31:46;101098.44;;;-2.45;63.58
43115;BME280;28727;50.068;14.452;2023-02-10T04:34:18;101101.84;;;-2.43;63.46
43115;BME280;28727;50.068;14.452;2023-02-10T04:36:50;101090.63;;;-2.42;63.06
43115;BME280;28727;50.068;14.452;2023-02-10T04:39:22;101091.47;;;-2.42;63.41
43115;BME280;28727;50.068;14.452;2023-02-10T04:41:54;101095.81;;;-2.44;63.47
43115;BME280;28727;50.068;14.452;2023-02-10T04:44:26;101099.31;;;-2.45;63.18
43115;BME280;28727;50.068;14.452;2023-02-10T04:46:58;101107.81;;;-2.41;63.50
43115;BME280;28727;50.068;14.452;2023-02-10T04:49:33;101102.75;;;-2.44;63.62
43115;BME280;28727;50.068;14.452;2023-02-10T04:52:05;101101.84;;;-2.43;63.48
43115;BME280;28727;50.068;14.452;2023-02-10T04:54:36;101108.75;;;-2.44;63.24
43115;BME280;28727;50.068;14.452;2023-02-10T04:57:08;101108.84;;;-2.47;63.41
43115;BME280;28727;50.068;14.452;2023-02-10T04:59:40;101114.16;;;-2.52;63.73
43115;BME280;28727;50.068;14.452;2023-02-10T05:02:11;101108.06;;;-2.49;63.56
43115;BME280;28727;50.068;14.452;2023-02-10T05:04:43;101112.50;;;-2.54;63.69
43115;BME280;28727;50.068;14.452;2023-02-10T05:07:17;101106.41;;;-2.53;63.72
43115;BME280;28727;50.068;14.452;2023-02-10T05:09:49;101118.47;;;-2.52;63.46
43115;BME280;28727;50.068;14.452;2023-02-10T05:12:21;101115.03;;;-2.53;63.84
43115;BME280;28727;50.068;14.452;2023-02-10T05:14:53;101120.03;;;-2.47;63.41
43115;BME280;28727;50.068;14.452;2023-02-10T05:17:25;101125.22;;;-2.47;63.85
43115;BME280;28727;50.068;14.452;2023-02-10T05:19:57;101126.84;;;-2.42;63.65
43115;BME280;28727;50.068;14.452;2023-02-10T05:22:29;101129.31;;;-2.39;63.37
43115;BME280;28727;50.068;14.452;2023-02-10T05:25:01;101133.50;;;-2.35;63.61
43115;BME280;28727;50.068;14.452;2023-02-10T05:27:33;101140.38;;;-2.34;63.55
43115;BME280;28727;50.068;14.452;2023-02-10T05:30:06;101149.78;;;-2.30;63.62
43115;BME280;28727;50.068;14.452;2023-02-10T05:32:38;101154.84;;;-2.27;63.00
43115;BME280;28727;50.068;14.452;2023-02-10T05:35:10;101150.63;;;-2.30;63.31
43115;BME280;28727;50.068;14.452;2023-02-10T05:37:42;101148.06;;;-2.31;62.75
43115;BME280;28727;50.068;14.452;2023-02-10T05:40:14;101150.88;;;-2.39;63.34
43115;BME280;28727;50.068;14.452;2023-02-10T05:42:45;101151.69;;;-2.37;63.11
43115;BME280;28727;50.068;14.452;2023-02-10T05:45:17;101174.00;;;-2.33;62.83
43115;BME280;28727;50.068;14.452;2023-02-10T05:47:49;101171.50;;;-2.36;63.03
43115;BME280;28727;50.068;14.452;2023-02-10T05:50:22;101172.41;;;-2.38;63.15
43115;BME280;28727;50.068;14.452;2023-02-10T05:52:53;101176.00;;;-2.42;63.70
43115;BME280;28727;50.068;14.452;2023-02-10T05:55:28;101175.16;;;-2.43;63.52
43115;BME280;28727;50.068;14.452;2023-02-10T05:58:01;101181.94;;;-2.40;63.39
43115;BME280;28727;50.068;14.452;2023-02-10T06:00:35;101174.19;;;-2.40;63.30
43115;BME280;28727;50.068;14.452;2023-02-10T06:03:07;101175.19;;;-2.44;63.07
43115;BME280;28727;50.068;14.452;2023-02-10T06:05:40;101185.50;;;-2.43;63.40
43115;BME280;28727;50.068;14.452;2023-02-10T06:08:11;101187.19;;;-2.42;63.69
43115;BME280;28727;50.068;14.452;2023-02-10T06:10:43;101187.09;;;-2.39;63.60
43115;BME280;28727;50.068;14.452;2023-02-10T06:13:15;101189.78;;;-2.42;63.37
43115;BME280;28727;50.068;14.452;2023-02-10T06:15:47;101189.78;;;-2.42;63.33
43115;BME280;28727;50.068;14.452;2023-02-10T06:18:19;101199.31;;;-2.44;63.54
43115;BME280;28727;50.068;14.452;2023-02-10T06:20:51;101189.72;;;-2.40;62.96
43115;BME280;28727;50.068;14.452;2023-02-10T06:23:24;101201.97;;;-2.47;63.66
43115;BME280;28727;50.068;14.452;2023-02-10T06:25:57;101205.38;;;-2.45;63.59
43115;BME280;28727;50.068;14.452;2023-02-10T06:28:30;101206.19;;;-2.43;64.03
43115;BME280;28727;50.068;14.452;2023-02-10T06:31:02;101202.66;;;-2.40;63.49
43115;BME280;28727;50.068;14.452;2023-02-10T06:33:34;101200.00;;;-2.37;63.59
43115;BME280;28727;50.068;14.452;2023-02-10T06:36:07;101198.19;;;-2.35;63.49
43115;BME280;28727;50.068;14.452;2023-02-10T06:38:39;101186.09;;;-2.35;63.55
43115;BME280;28727;50.068;14.452;2023-02-10T06:41:11;101193.66;;;-2.27;63.25
43115;BME280;28727;50.068;14.452;2023-02-10T06:43:43;101194.56;;;-2.28;63.35
43115;BME280;28727;50.068;14.452;2023-02-10T06:46:15;101192.94;;;-2.32;63.00
43115;BME280;28727;50.068;14.452;2023-02-10T06:48:47;101191.19;;;-2.30;62.92
43115;BME280;28727;50.068;14.452;2023-02-10T06:51:21;101197.69;;;-1.88;62.84
43115;BME280;28727;50.068;14.452;2023-02-10T06:53:56;101189.41;;;-0.89;62.15
43115;BME280;28727;50.068;14.452;2023-02-10T06:56:31;101210.28;;;0.29;59.66
43115;BME280;28727;50.068;14.452;2023-02-10T06:59:03;101206.00;;;1.35;57.68
43115;BME280;28727;50.068;14.452;2023-02-10T07:01:35;101202.72;;;2.28;55.58
43115;BME280;28727;50.068;14.452;2023-02-10T07:04:09;101204.06;;;3.26;51.91
43115;BME280;28727;50.068;14.452;2023-02-10T07:06:41;101212.56;;;3.97;50.31
43115;BME280;28727;50.068;14.452;2023-02-10T07:09:13;101205.38;;;4.49;47.85
43115;BME280;28727;50.068;14.452;2023-02-10T07:11:44;101213.31;;;5.39;46.71
43115;BME280;28727;50.068;14.452;2023-02-10T07:14:16;101204.22;;;6.31;43.65
43115;BME280;28727;50.068;14.452;2023-02-10T07:16:50;101211.75;;;7.17;41.67
43115;BME280;28727;50.068;14.452;2023-02-10T07:19:22;101220.03;;;8.01;40.69
43115;BME280;28727;50.068;14.452;2023-02-10T07:21:54;101220.56;;;8.68;39.03
43115;BME280;28727;50.068;14.452;2023-02-10T07:24:25;101219.16;;;9.69;37.40
43115;BME280;28727;50.068;14.452;2023-02-10T07:26:57;101217.63;;;10.78;35.25
43115;BME280;28727;50.068;14.452;2023-02-10T07:29:29;101209.16;;;11.68;33.41
43115;BME280;28727;50.068;14.452;2023-02-10T07:32:01;101216.31;;;12.28;31.81
43115;BME280;28727;50.068;14.452;2023-02-10T07:34:33;101214.94;;;13.03;29.98
43115;BME280;28727;50.068;14.452;2023-02-10T07:37:06;101220.00;;;13.16;30.44
43115;BME280;28727;50.068;14.452;2023-02-10T07:39:38;101224.72;;;12.43;30.90
43115;BME280;28727;50.068;14.452;2023-02-10T07:42:09;101228.53;;;11.16;31.44
43115;BME280;28727;50.068;14.452;2023-02-10T07:45:01;101238.41;;;9.93;33.26
43115;BME280;28727;50.068;14.452;2023-02-10T07:47:33;101247.94;;;8.16;35.00
43115;BME280;28727;50.068;14.452;2023-02-10T07:50:08;101251.38;;;7.14;36.82
43115;BME280;28727;50.068;14.452;2023-02-10T07:52:40;101252.00;;;6.50;38.18
43115;BME280;28727;50.068;14.452;2023-02-10T07:55:13;101253.63;;;5.66;39.69
43115;BME280;28727;50.068;14.452;2023-02-10T07:57:44;101262.06;;;5.27;40.49
43115;BME280;28727;50.068;14.452;2023-02-10T08:00:16;101269.19;;;4.78;41.20
43115;BME280;28727;50.068;14.452;2023-02-10T08:02:48;101260.31;;;4.49;42.04
43115;BME280;28727;50.068;14.452;2023-02-10T08:05:20;101262.84;;;4.35;42.91
43115;BME280;28727;50.068;14.452;2023-02-10T08:07:52;101253.13;;;4.21;43.05
43115;BME280;28727;50.068;14.452;2023-02-10T08:10:24;101258.84;;;3.95;43.60
43115;BME280;28727;50.068;14.452;2023-02-10T08:12:56;101270.59;;;3.70;44.32
43115;BME280;28727;50.068;14.452;2023-02-10T08:15:27;101272.50;;;3.33;45.46
43115;BME280;28727;50.068;14.452;2023-02-10T08:18:00;101275.22;;;3.12;45.46
43115;BME280;28727;50.068;14.452;2023-02-10T08:20:32;101274.22;;;2.79;46.56
43115;BME280;28727;50.068;14.452;2023-02-10T08:23:03;101275.56;;;2.50;47.48
43115;BME280;28727;50.068;14.452;2023-02-10T08:25:37;101271.13;;;2.33;47.90
43115;BME280;28727;50.068;14.452;2023-02-10T08:28:11;101275.97;;;2.22;48.38
43115;BME280;28727;50.068;14.452;2023-02-10T08:30:43;101270.03;;;2.19;48.49
43115;BME280;28727;50.068;14.452;2023-02-10T08:33:14;101276.59;;;2.09;48.75
43115;BME280;28727;50.068;14.452;2023-02-10T08:35:46;101276.06;;;2.00;49.70
43115;BME280;28727;50.068;14.452;2023-02-10T08:38:18;101268.97;;;2.04;49.19
43115;BME280;28727;50.068;14.452;2023-02-10T08:40:56;101266.94;;;2.11;49.36
43115;BME280;28727;50.068;14.452;2023-02-10T08:43:28;101262.44;;;2.14;49.57
43115;BME280;28727;50.068;14.452;2023-02-10T08:46:00;101249.19;;;2.19;49.88
43115;BME280;28727;50.068;14.452;2023-02-10T08:48:33;101255.75;;;2.27;50.32
43115;BME280;28727;50.068;14.452;2023-02-10T08:51:07;101258.03;;;2.35;50.29
43115;BME280;28727;50.068;14.452;2023-02-10T08:53:39;101263.72;;;2.43;50.08
43115;BME280;28727;50.068;14.452;2023-02-10T08:56:14;101268.44;;;2.54;49.50
43115;BME280;28727;50.068;14.452;2023-02-10T08:58:47;101274.22;;;2.60;49.85
43115;BME280;28727;50.068;14.452;2023-02-10T09:01:23;101276.28;;;2.54;49.71
43115;BME280;28727;50.068;14.452;2023-02-10T09:03:57;101283.34;;;2.52;49.89
43115;BME280;28727;50.068;14.452;2023-02-10T09:06:34;101281.69;;;2.49;49.71
43115;BME280;28727;50.068;14.452;2023-02-10T09:09:16;101287.19;;;2.43;50.11
43115;BME280;28727;50.068;14.452;2023-02-10T09:11:48;101308.91;;;2.43;50.07
43115;BME280;28727;50.068;14.452;2023-02-10T09:14:20;101314.56;;;2.34;50.72
43115;BME280;28727;50.068;14.452;2023-02-10T09:16:52;101312.22;;;2.28;50.74
43115;BME280;28727;50.068;14.452;2023-02-10T09:19:26;101311.31;;;2.09;50.95
43115;BME280;28727;50.068;14.452;2023-02-10T09:22:01;101304.28;;;1.91;51.15
43115;BME280;28727;50.068;14.452;2023-02-10T09:24:33;101291.84;;;1.77;51.75
43115;BME280;28727;50.068;14.452;2023-02-10T09:27:05;101284.75;;;1.81;51.75
43115;BME280;28727;50.068;14.452;2023-02-10T09:29:37;101280.19;;;1.86;52.12
43115;BME280;28727;50.068;14.452;2023-02-10T09:32:08;101282.28;;;1.98;51.85
43115;BME280;28727;50.068;14.452;2023-02-10T09:34:40;101288.19;;;2.01;51.96
43115;BME280;28727;50.068;14.452;2023-02-10T09:37:12;101288.75;;;2.08;51.79
43115;BME280;28727;50.068;14.452;2023-02-10T09:39:44;101309.03;;;2.01;52.14
43115;BME280;28727;50.068;14.452;2023-02-10T09:44:59;101298.13;;;2.12;52.41
43115;BME280;28727;50.068;14.452;2023-02-10T09:47:51;101300.09;;;2.27;52.57
43115;BME280;28727;50.068;14.452;2023-02-10T09:53:11;101306.78;;;2.33;51.77
43115;BME280;28727;50.068;14.452;2023-02-10T09:55:54;101304.41;;;2.47;51.95
43115;BME280;28727;50.068;14.452;2023-02-10T10:01:45;101297.16;;;2.35;51.28
43115;BME280;28727;50.068;14.452;2023-02-10T10:04:20;101301.16;;;2.23;52.21
43115;BME280;28727;50.068;14.452;2023-02-10T10:09:46;101301.47;;;2.16;52.69
43115;BME280;28727;50.068;14.452;2023-02-10T10:12:21;101298.03;;;2.15;53.00
43115;BME280;28727;50.068;14.452;2023-02-10T10:14:53;101302.75;;;2.26;52.83
43115;BME280;28727;50.068;14.452;2023-02-10T10:34:50;101293.63;;;2.73;53.19
43115;BME280;28727;50.068;14.452;2023-02-10T10:37:24;101298.44;;;2.82;52.53
43115;BME280;28727;50.068;14.452;2023-02-10T10:40:04;101302.28;;;2.74;53.15
43115;BME280;28727;50.068;14.452;2023-02-10T10:42:43;101298.72;;;2.76;52.49
43115;BME280;28727;50.068;14.452;2023-02-10T10:45:34;101299.47;;;2.78;53.01
43115;BME280;28727;50.068;14.452;2023-02-10T10:48:16;101294.03;;;2.83;53.03
43115;BME280;28727;50.068;14.452;2023-02-10T10:50:49;101301.28;;;2.95;52.62
43115;BME280;28727;50.068;14.452;2023-02-10T10:53:37;101292.19;;;3.04;53.56
43115;BME280;28727;50.068;14.452;2023-02-10T10:59:15;101288.28;;;3.12;52.98
43115;BME280;28727;50.068;14.452;2023-02-10T11:01:49;101290.69;;;3.17;52.36
43115;BME280;28727;50.068;14.452;2023-02-10T11:04:26;101287.78;;;3.23;52.48
43115;BME280;28727;50.068;14.452;2023-02-10T11:06:59;101287.78;;;3.23;52.97
43115;BME280;28727;50.068;14.452;2023-02-10T11:09:35;101282.91;;;3.15;52.79
43115;BME280;28727;50.068;14.452;2023-02-10T11:14:52;101281.94;;;3.18;52.55
43115;BME280;28727;50.068;14.452;2023-02-10T11:17:36;101281.09;;;3.17;52.58
43115;BME280;28727;50.068;14.452;2023-02-10T11:22:44;101285.31;;;3.37;52.49
43115;BME280;28727;50.068;14.452;2023-02-10T11:25:35;101284.28;;;3.41;52.42
43115;BME280;28727;50.068;14.452;2023-02-10T11:28:18;101287.50;;;3.46;52.95
43115;BME280;28727;50.068;14.452;2023-02-10T11:30:57;101279.97;;;3.57;52.62
43115;BME280;28727;50.068;14.452;2023-02-10T11:33:31;101280.09;;;3.71;51.78
43115;BME280;28727;50.068;14.452;2023-02-10T11:36:10;101279.88;;;3.76;51.56
43115;BME280;28727;50.068;14.452;2023-02-10T11:38:46;101273.81;;;3.76;51.70
43115;BME280;28727;50.068;14.452;2023-02-10T11:41:18;101274.66;;;3.76;51.67
43115;BME280;28727;50.068;14.452;2023-02-10T11:44:01;101268.16;;;3.83;52.00
43115;BME280;28727;50.068;14.452;2023-02-10T11:46:34;101270.88;;;3.82;51.89
43115;BME280;28727;50.068;14.452;2023-02-10T11:49:16;101264.31;;;3.90;51.18
43115;BME280;28727;50.068;14.452;2023-02-10T11:51:54;101257.78;;;3.99;51.61
43115;BME280;28727;50.068;14.452;2023-02-10T11:54:27;101260.19;;;4.19;50.83
43115;BME280;28727;50.068;14.452;2023-02-10T12:17:33;101263.88;;;4.64;50.44
43115;BME280;28727;50.068;14.452;2023-02-10T12:20:30;101255.03;;;4.82;50.27
43115;BME280;28727;50.068;14.452;2023-02-10T12:26:29;101248.09;;;5.26;48.82
43115;BME280;28727;50.068;14.452;2023-02-10T12:29:19;101245.69;;;5.67;48.27
43115;BME280;28727;50.068;14.452;2023-02-10T12:38:16;101225.75;;;6.64;46.37
43115;BME280;28727;50.068;14.452;2023-02-10T12:43:54;101224.00;;;7.04;45.77
43115;BME280;28727;50.068;14.452;2023-02-10T12:46:39;101215.41;;;7.42;44.48
43115;BME280;28727;50.068;14.452;2023-02-10T12:49:30;101212.25;;;7.74;44.63
43115;BME280;28727;50.068;14.452;2023-02-10T12:52:16;101205.63;;;7.81;44.59
43115;BME280;28727;50.068;14.452;2023-02-10T12:55:02;101213.81;;;7.90;42.72
43115;BME280;28727;50.068;14.452;2023-02-10T12:57:52;101213.19;;;7.99;44.04
43115;BME280;28727;50.068;14.452;2023-02-10T13:00:38;101214.03;;;7.87;43.60
43115;BME280;28727;50.068;14.452;2023-02-10T13:06:02;101217.41;;;7.76;43.49
43115;BME280;28727;50.068;14.452;2023-02-10T13:08:43;101210.69;;;7.59;43.93
43115;BME280;28727;50.068;14.452;2023-02-10T13:11:26;101205.56;;;7.18;44.34
43115;BME280;28727;50.068;14.452;2023-02-10T13:14:05;101209.50;;;6.98;44.66
43115;BME280;28727;50.068;14.452;2023-02-10T13:16:43;101209.00;;;7.06;44.51
43115;BME280;28727;50.068;14.452;2023-02-10T13:22:10;101208.44;;;7.01;44.64
43115;BME280;28727;50.068;14.452;2023-02-10T13:25:02;101209.81;;;6.94;45.04
43115;BME280;28727;50.068;14.452;2023-02-10T13:28:00;101214.13;;;6.95;45.00
43115;BME280;28727;50.068;14.452;2023-02-10T13:33:31;101209.84;;;7.07;45.12
43115;BME280;28727;50.068;14.452;2023-02-10T13:36:17;101198.81;;;7.14;44.65
43115;BME280;28727;50.068;14.452;2023-02-10T13:39:19;101203.31;;;6.99;44.58
43115;BME280;28727;50.068;14.452;2023-02-10T13:42:26;101216.13;;;7.04;44.92
43115;BME280;28727;50.068;14.452;2023-02-10T13:44:58;101205.13;;;7.12;44.20
43115;BME280;28727;50.068;14.452;2023-02-10T13:53:24;101201.44;;;7.14;44.19
43115;BME280;28727;50.068;14.452;2023-02-10T14:06:53;101205.91;;;7.39;44.23
43115;BME280;28727;50.068;14.452;2023-02-10T14:12:01;101206.94;;;7.24;44.14
43115;BME280;28727;50.068;14.452;2023-02-10T14:14:37;101213.03;;;7.37;44.02
43115;BME280;28727;50.068;14.452;2023-02-10T14:19:46;101212.84;;;7.40;43.84
43115;BME280;28727;50.068;14.452;2023-02-10T14:22:32;101214.44;;;7.30;43.65
43115;BME280;28727;50.068;14.452;2023-02-10T14:27:49;101208.25;;;7.04;44.14
43115;BME280;28727;50.068;14.452;2023-02-10T14:30:44;101197.06;;;6.88;44.70
43115;BME280;28727;50.068;14.452;2023-02-10T14:33:27;101207.66;;;6.86;44.64
43115;BME280;28727;50.068;14.452;2023-02-10T14:36:02;101199.16;;;6.83;44.76
43115;BME280;28727;50.068;14.452;2023-02-10T14:38:34;101196.72;;;6.80;45.11
43115;BME280;28727;50.068;14.452;2023-02-10T14:41:07;101194.56;;;6.72;45.44
43115;BME280;28727;50.068;14.452;2023-02-10T14:43:51;101196.56;;;6.69;45.42
43115;BME280;28727;50.068;14.452;2023-02-10T14:46:30;101199.88;;;6.58;45.43
43115;BME280;28727;50.068;14.452;2023-02-10T14:49:09;101189.59;;;6.41;45.84
43115;BME280;28727;50.068;14.452;2023-02-10T14:51:43;101183.72;;;6.23;46.21
43115;BME280;28727;50.068;14.452;2023-02-10T14:54:21;101179.34;;;6.24;46.26
43115;BME280;28727;50.068;14.452;2023-02-10T14:56:58;101187.84;;;6.27;46.52
43115;BME280;28727;50.068;14.452;2023-02-10T14:59:31;101189.06;;;6.22;46.76
43115;BME280;28727;50.068;14.452;2023-02-10T15:02:25;101191.78;;;6.20;47.06
43115;BME280;28727;50.068;14.452;2023-02-10T15:04:59;101196.19;;;6.20;46.82
43115;BME280;28727;50.068;14.452;2023-02-10T15:07:35;101194.97;;;5.97;47.00
43115;BME280;28727;50.068;14.452;2023-02-10T15:12:57;101197.00;;;5.77;47.38
43115;BME280;28727;50.068;14.452;2023-02-10T15:15:33;101187.63;;;5.73;47.64
43115;BME280;28727;50.068;14.452;2023-02-10T15:18:08;101192.78;;;5.61;48.01
43115;BME280;28727;50.068;14.452;2023-02-10T15:20:52;101196.97;;;5.49;48.41
43115;BME280;28727;50.068;14.452;2023-02-10T15:23:25;101190.22;;;5.45;48.26
43115;BME280;28727;50.068;14.452;2023-02-10T15:26:25;101188.63;;;5.43;48.31
43115;BME280;28727;50.068;14.452;2023-02-10T15:29:16;101206.47;;;5.36;48.86
43115;BME280;28727;50.068;14.452;2023-02-10T15:31:57;101201.44;;;5.33;48.64
43115;BME280;28727;50.068;14.452;2023-02-10T15:34:31;101190.47;;;5.26;48.53
43115;BME280;28727;50.068;14.452;2023-02-10T15:37:05;101197.84;;;5.20;49.10
43115;BME280;28727;50.068;14.452;2023-02-10T15:39:55;101194.91;;;5.10;49.55
43115;BME280;28727;50.068;14.452;2023-02-10T15:42:29;101202.09;;;5.07;49.28